createdAt,value
2023-03-29T00:03:05.162Z,2.20
2023-03-29T00:09:09.686Z,2.23
2023-03-29T00:15:11.902Z,2.60
2023-03-29T00:21:15.379Z,2.43
2023-03-29T00:27:20.872Z,2.90
2023-03-29T00:33:26.359Z,2.80
2023-03-29T00:39:29.910Z,3.23
2023-03-29T00:45:32.011Z,2.57
2023-03-29T00:51:38.826Z,3.03
2023-03-29T00:57:47.345Z,2.57
2023-03-29T01:03:54.737Z,2.63
2023-03-29T01:10:06.459Z,2.70
2023-03-29T01:16:13.227Z,3.20
2023-03-29T01:22:34.399Z,2.37
2023-03-29T01:28:49.639Z,2.50
2023-03-29T01:35:02.382Z,2.90
2023-03-29T01:41:05.068Z,2.53
2023-03-29T01:47:47.575Z,2.40
2023-03-29T01:54:00.035Z,2.83
2023-03-29T02:00:08.298Z,2.90
2023-03-29T02:06:17.082Z,2.67
2023-03-29T02:12:20.069Z,2.53
2023-03-29T02:18:21.811Z,2.70
2023-03-29T02:24:26.397Z,2.83
2023-03-29T02:30:36.951Z,2.40
2023-03-29T02:36:52.551Z,3.00
2023-03-29T02:42:56.375Z,3.27
2023-03-29T02:48:59.218Z,2.87
2023-03-29T02:55:03.363Z,3.30
2023-03-29T03:01:07.155Z,3.03
2023-03-29T03:07:09.467Z,3.47
2023-03-29T03:13:11.771Z,3.33
2023-03-29T03:19:14.625Z,3.13
2023-03-29T03:25:19.611Z,3.20
2023-03-29T03:31:21.865Z,3.50
2023-03-29T03:37:23.751Z,3.23
2023-03-29T03:43:26.191Z,3.33
2023-03-29T03:49:28.257Z,4.50
2023-03-29T03:55:32.633Z,4.47
2023-03-29T04:01:35.608Z,3.43
2023-03-29T04:07:37.441Z,3.00
2023-03-29T04:13:39.385Z,3.37
2023-03-29T04:19:41.163Z,3.13
2023-03-29T04:25:43.276Z,3.10
2023-03-29T04:31:45.123Z,3.90
2023-03-29T04:37:46.927Z,3.23
2023-03-29T04:43:48.905Z,5.33
2023-03-29T04:49:50.934Z,4.60
2023-03-29T04:55:55.739Z,4.93
2023-03-29T05:01:58.131Z,10.27
2023-03-29T05:07:59.944Z,4.40
2023-03-29T05:14:03.501Z,3.60
2023-03-29T05:20:13.256Z,3.13
2023-03-29T05:26:15.556Z,3.90
2023-03-29T05:32:17.693Z,2.70
2023-03-29T05:38:19.483Z,2.97
2023-03-29T05:44:21.307Z,4.10
2023-03-29T05:50:23.485Z,2.57
2023-03-29T05:56:26.284Z,2.90
2023-03-29T06:02:28.770Z,2.23
2023-03-29T06:08:32.084Z,2.20
2023-03-29T06:14:34.093Z,2.30
2023-03-29T06:20:37.120Z,2.30
2023-03-29T06:26:38.850Z,2.20
2023-03-29T06:32:41.411Z,1.67
2023-03-29T06:38:45.602Z,1.60
2023-03-29T06:44:47.978Z,1.80
2023-03-29T06:50:49.895Z,2.17
2023-03-29T06:56:52.465Z,2.00
2023-03-29T07:02:56.396Z,1.80
2023-03-29T07:09:01.027Z,1.67
2023-03-29T07:15:03.358Z,2.20
2023-03-29T07:21:06.625Z,1.80
2023-03-29T07:27:09.442Z,1.93
2023-03-29T07:33:13.713Z,1.40
2023-03-29T07:39:16.038Z,1.33
2023-03-29T07:45:26.879Z,1.50
2023-03-29T07:51:31.013Z,1.63
2023-03-29T07:57:33.506Z,1.10
2023-03-29T08:03:35.987Z,1.17
2023-03-29T08:09:39.699Z,1.00
2023-03-29T08:15:46.257Z,0.93
2023-03-29T08:21:48.802Z,1.00
2023-03-29T08:27:50.771Z,1.50
2023-03-29T08:33:55.672Z,1.30
2023-03-29T08:39:58.829Z,1.23
2023-03-29T08:46:08.399Z,2.73
2023-03-29T08:52:38.908Z,1.50
2023-03-29T08:58:44.579Z,1.43
2023-03-29T09:04:50.917Z,3.07
2023-03-29T09:11:18.476Z,3.03
2023-03-29T09:17:33.342Z,1.57
2023-03-29T09:24:16.601Z,1.67
2023-03-29T09:30:37.167Z,2.20
2023-03-29T09:37:12.785Z,2.53
2023-03-29T09:43:28.335Z,2.67
2023-03-29T09:49:40.126Z,2.20
2023-03-29T09:55:46.293Z,2.63
2023-03-29T10:01:49.986Z,2.20
2023-03-29T10:07:56.834Z,2.43
2023-03-29T10:14:06.789Z,2.23
2023-03-29T10:20:16.317Z,2.27
2023-03-29T10:26:44.975Z,2.50
2023-03-29T10:32:47.472Z,1.70
2023-03-29T10:38:51.955Z,1.57
2023-03-29T10:44:59.510Z,1.90
2023-03-29T10:51:04.176Z,2.33
2023-03-29T10:57:12.472Z,2.50
2023-03-29T11:03:33.043Z,2.30
2023-03-29T11:09:46.513Z,2.37
2023-03-29T11:16:05.080Z,1.50
2023-03-29T11:22:13.501Z,1.37
2023-03-29T11:28:39.091Z,1.37
2023-03-29T11:35:12.390Z,1.57
2023-03-29T11:41:21.194Z,1.50
2023-03-29T11:47:28.740Z,1.33
2023-03-29T11:54:04.944Z,1.10
2023-03-29T12:00:16.807Z,1.50
2023-03-29T12:06:45.650Z,1.10
2023-03-29T12:13:02.337Z,1.40
2023-03-29T12:19:29.514Z,1.53
2023-03-29T12:25:44.998Z,1.50
2023-03-29T12:31:53.559Z,1.60
2023-03-29T12:38:25.131Z,1.47
2023-03-29T12:44:27.592Z,1.73
2023-03-29T12:50:43.091Z,1.80
2023-03-29T12:57:00.719Z,1.93
2023-03-29T13:03:06.832Z,1.63
2023-03-29T13:09:23.468Z,2.40
2023-03-29T13:15:28.239Z,1.87
2023-03-29T13:21:41.710Z,2.13
2023-03-29T13:27:59.218Z,1.73
2023-03-29T13:34:10.753Z,1.50
2023-03-29T13:40:45.309Z,1.87
2023-03-29T13:46:48.862Z,1.73
2023-03-29T13:53:10.455Z,1.87
2023-03-29T13:59:30.952Z,1.73
2023-03-29T14:05:37.444Z,2.07
2023-03-29T14:11:48.955Z,1.37
2023-03-29T14:18:00.716Z,1.30
2023-03-29T14:24:03.932Z,1.70
2023-03-29T14:30:28.510Z,1.47
2023-03-29T14:36:32.631Z,1.70
2023-03-29T14:42:34.716Z,1.30
2023-03-29T14:48:37.190Z,1.53
2023-03-29T14:54:45.805Z,1.53
2023-03-29T15:00:50.803Z,1.37
2023-03-29T15:06:53.142Z,1.20
2023-03-29T15:12:56.146Z,1.60
2023-03-29T15:18:58.819Z,1.80
2023-03-29T15:25:02.857Z,1.70
2023-03-29T15:31:12.208Z,2.07
2023-03-29T15:37:14.786Z,1.90
2023-03-29T15:43:17.255Z,2.07
2023-03-29T15:49:19.778Z,1.67
2023-03-29T15:55:24.197Z,2.40
2023-03-29T16:01:36.716Z,2.23
2023-03-29T16:07:39.190Z,2.23
2023-03-29T16:13:44.695Z,1.90
2023-03-29T16:19:46.451Z,2.23
2023-03-29T16:25:48.228Z,1.60
2023-03-29T16:31:50.697Z,1.73
2023-03-29T16:37:52.559Z,1.70
2023-03-29T16:43:56.142Z,1.70
2023-03-29T16:49:58.577Z,2.37
2023-03-29T16:56:01.176Z,1.97
2023-03-29T17:02:03.486Z,2.17
2023-03-29T17:08:06.139Z,2.67
2023-03-29T17:14:09.384Z,4.77
2023-03-29T17:20:13.896Z,3.50
2023-03-29T17:26:18.220Z,4.47
2023-03-29T17:32:20.400Z,7.53
2023-03-29T17:38:22.723Z,12.27
2023-03-29T17:44:24.884Z,3.23
2023-03-29T17:50:29.316Z,5.03
2023-03-29T17:56:32.769Z,3.10
2023-03-29T18:02:34.812Z,3.60
2023-03-29T18:08:42.137Z,3.10
2023-03-29T18:14:44.180Z,2.83
2023-03-29T18:20:47.672Z,2.53
2023-03-29T18:26:50.152Z,2.63
2023-03-29T18:32:52.695Z,2.53
2023-03-29T18:38:55.977Z,2.90
2023-03-29T18:44:58.571Z,3.70
2023-03-29T18:51:01.869Z,3.03
2023-03-29T18:57:08.545Z,7.00
2023-03-29T19:03:12.067Z,6.07
2023-03-29T19:09:14.465Z,8.17
2023-03-29T19:15:16.934Z,5.47
2023-03-29T19:21:21.425Z,6.43
2023-03-29T19:27:25.758Z,5.07
2023-03-29T19:33:31.411Z,4.07
2023-03-29T19:39:33.883Z,2.60
2023-03-29T19:45:38.329Z,2.30
2023-03-29T19:51:41.820Z,2.97
2023-03-29T19:57:44.325Z,2.40
2023-03-29T20:03:47.778Z,3.03
2023-03-29T20:09:49.697Z,2.77
2023-03-29T20:15:51.775Z,2.73
2023-03-29T20:21:57.807Z,2.27
2023-03-29T20:28:00.799Z,2.10
2023-03-29T20:34:03.208Z,3.20
2023-03-29T20:40:06.710Z,2.47
2023-03-29T20:46:19.219Z,2.40
2023-03-29T20:52:23.756Z,2.20
2023-03-29T20:58:28.222Z,2.93
2023-03-29T21:04:31.650Z,5.00
2023-03-29T21:10:34.109Z,3.37
2023-03-29T21:16:36.594Z,2.80
2023-03-29T21:22:40.080Z,2.10
2023-03-29T21:28:43.512Z,2.60
2023-03-29T21:34:45.973Z,2.70
2023-03-29T21:40:48.487Z,2.63
2023-03-29T21:46:50.963Z,3.57
2023-03-29T21:52:53.424Z,3.03
2023-03-29T21:58:58.193Z,3.80
2023-03-29T22:05:00.191Z,3.53
2023-03-29T22:11:08.210Z,3.13
2023-03-29T22:17:10.450Z,2.97
2023-03-29T22:23:13.417Z,2.30
2023-03-29T22:29:15.248Z,2.40
2023-03-29T22:35:17.133Z,1.90
2023-03-29T22:41:21.924Z,2.30
2023-03-29T22:47:23.696Z,2.00
2023-03-29T22:53:26.040Z,2.17
2023-03-29T22:59:27.992Z,2.50
2023-03-29T23:05:29.741Z,2.10
2023-03-29T23:11:32.980Z,2.20
2023-03-29T23:17:35.084Z,1.80
2023-03-29T23:23:37.446Z,2.10
2023-03-29T23:29:39.301Z,2.40
2023-03-29T23:35:41.394Z,3.73
2023-03-29T23:41:43.131Z,4.30
2023-03-29T23:47:45.938Z,3.43
2023-03-29T23:53:48.868Z,7.13
2023-03-29T23:59:52.806Z,6.17
